createdAt,value
2019-01-11T00:01:15.659Z,21.30
2019-01-11T00:04:03.160Z,22.73
2019-01-11T00:06:31.535Z,17.60
2019-01-11T00:08:59.918Z,26.10
2019-01-11T00:11:47.639Z,17.90
2019-01-11T00:14:35.307Z,17.00
2019-01-11T00:17:03.691Z,19.70
2019-01-11T00:19:51.188Z,20.60
2019-01-11T00:22:38.694Z,18.87
2019-01-11T00:25:46.981Z,19.10
2019-01-11T00:28:34.483Z,21.23
2019-01-11T00:31:43.013Z,22.48
2019-01-11T00:34:11.402Z,22.23
2019-01-11T00:36:39.784Z,23.00
2019-01-11T00:39:48.093Z,22.10
2019-01-11T00:42:16.474Z,23.13
2019-01-11T00:44:44.866Z,28.90
2019-01-11T00:50:47.363Z,24.30
2019-01-11T00:55:50.190Z,23.63
2019-01-11T00:58:37.692Z,23.27
2019-01-11T01:01:25.412Z,24.20
2019-01-11T01:04:13.097Z,25.73
2019-01-11T01:07:00.587Z,25.40
2019-01-11T01:09:28.974Z,24.10
2019-01-11T01:12:16.601Z,24.77
2019-01-11T01:14:45.002Z,25.57
2019-01-11T01:20:20.171Z,24.23
2019-01-11T01:22:48.548Z,22.10
2019-01-11T01:28:11.384Z,25.50
2019-01-11T01:30:39.772Z,23.00
2019-01-11T01:33:27.396Z,23.70
2019-01-11T01:35:55.783Z,24.57
2019-01-11T01:38:43.422Z,26.37
2019-01-11T01:43:59.252Z,21.73
2019-01-11T01:46:27.970Z,23.13
2019-01-11T01:48:56.356Z,24.57
2019-01-11T01:51:43.981Z,28.23
2019-01-11T01:54:12.387Z,25.13
2019-01-11T01:57:00.021Z,23.83
2019-01-11T01:59:28.408Z,25.03
2019-01-11T02:01:57.047Z,23.67
2019-01-11T02:04:44.790Z,24.53
2019-01-11T02:10:19.868Z,22.20
2019-01-11T02:12:48.250Z,24.70
2019-01-11T02:15:16.628Z,22.30
2019-01-11T02:20:32.456Z,22.20
2019-01-11T02:23:00.835Z,21.73
2019-01-11T02:25:29.242Z,21.13
2019-01-11T02:27:57.629Z,21.27
2019-01-11T02:30:26.018Z,18.87
2019-01-11T02:32:54.398Z,21.80
2019-01-11T02:35:22.786Z,20.47
2019-01-11T02:37:51.165Z,22.60
2019-01-11T02:40:19.624Z,20.47
2019-01-11T02:42:48.027Z,24.03
2019-01-11T02:45:18.643Z,21.30
2019-01-11T02:47:47.019Z,20.27
2019-01-11T02:50:15.949Z,21.80
2019-01-11T02:52:44.607Z,22.23
2019-01-11T02:55:13.334Z,21.00
2019-01-11T02:57:41.708Z,21.30
2019-01-11T03:00:18.323Z,21.53
2019-01-11T03:02:46.701Z,18.30
2019-01-11T03:05:15.328Z,20.40
2019-01-11T03:07:44.255Z,21.03
2019-01-11T03:10:17.814Z,21.43
2019-01-11T03:12:46.263Z,17.93
2019-01-11T03:15:16.191Z,18.03
2019-01-11T03:17:44.639Z,19.27
2019-01-11T03:20:14.962Z,20.47
2019-01-11T03:22:43.342Z,19.27
2019-01-11T03:25:13.921Z,20.17
2019-01-11T03:27:42.479Z,18.17
2019-01-11T03:30:18.800Z,21.70
2019-01-11T03:32:47.267Z,22.17
2019-01-11T03:35:16.517Z,22.70
2019-01-11T03:37:46.243Z,22.70
2019-01-11T03:40:17.375Z,23.70
2019-01-11T03:42:45.767Z,21.73
2019-01-11T03:45:16.687Z,26.23
2019-01-11T03:47:45.097Z,27.50
2019-01-11T03:50:15.711Z,28.90
2019-01-11T03:52:44.114Z,29.43
2019-01-11T03:55:14.520Z,24.67
2019-01-11T03:57:43.000Z,29.87
2019-01-11T04:00:14.219Z,28.93
2019-01-11T04:02:42.620Z,29.43
2019-01-11T04:05:11.242Z,30.93
2019-01-11T04:07:39.628Z,31.07
2019-01-11T04:10:11.056Z,28.90
2019-01-11T04:12:39.443Z,29.43
2019-01-11T04:15:10.572Z,33.83
2019-01-11T04:17:38.951Z,33.20
2019-01-11T04:20:10.383Z,34.00
2019-01-11T04:22:39.840Z,35.63
2019-01-11T04:25:09.499Z,35.17
2019-01-11T04:27:37.887Z,34.40
2019-01-11T04:30:09.318Z,38.20
2019-01-11T04:32:37.706Z,33.93
2019-01-11T04:35:06.158Z,39.40
2019-01-11T04:37:34.545Z,41.20
2019-01-11T04:40:03.188Z,41.07
2019-01-11T04:42:31.579Z,39.80
2019-01-11T04:44:59.953Z,47.30
2019-01-11T04:47:28.335Z,47.67
2019-01-11T04:49:56.711Z,50.90
2019-01-11T04:52:25.106Z,44.37
2019-01-11T04:54:53.489Z,38.70
2019-01-11T04:57:21.875Z,46.50
2019-01-11T04:59:50.256Z,44.57
2019-01-11T05:02:18.656Z,56.13
2019-01-11T05:04:47.153Z,56.80
2019-01-11T05:07:15.541Z,55.03
2019-01-11T05:09:43.914Z,62.73
2019-01-11T05:12:12.305Z,57.83
2019-01-11T05:14:40.680Z,77.07
2019-01-11T05:17:09.083Z,63.00
2019-01-11T05:19:37.455Z,91.43
2019-01-11T05:22:05.845Z,100.33
2019-01-11T05:24:34.226Z,88.43
2019-01-11T05:27:02.976Z,118.57
2019-01-11T05:29:31.370Z,124.23
2019-01-11T05:31:59.752Z,119.63
2019-01-11T05:34:28.148Z,92.17
2019-01-11T05:36:56.529Z,96.57
2019-01-11T05:39:24.937Z,120.77
2019-01-11T05:41:53.334Z,119.70
2019-01-11T05:44:21.719Z,126.73
2019-01-11T05:46:50.101Z,131.70
2019-01-11T05:49:18.491Z,107.37
2019-01-11T05:51:46.874Z,126.60
2019-01-11T05:54:15.266Z,147.53
2019-01-11T05:56:43.656Z,154.90
2019-01-11T05:59:12.053Z,166.10
2019-01-11T06:01:40.433Z,147.17
2019-01-11T06:04:10.470Z,199.03
2019-01-11T06:06:56.693Z,162.00
2019-01-11T06:09:25.160Z,185.13
2019-01-11T06:11:53.543Z,175.43
2019-01-11T06:14:21.945Z,263.47
2019-01-11T06:16:50.329Z,253.40
2019-01-11T06:19:18.720Z,249.03
2019-01-11T06:21:47.100Z,249.07
2019-01-11T06:24:18.472Z,229.43
2019-01-11T06:26:47.094Z,248.17
2019-01-11T06:29:15.485Z,255.57
2019-01-11T06:31:43.865Z,241.47
2019-01-11T06:34:12.276Z,425.17
2019-01-11T06:36:40.657Z,279.27
2019-01-11T06:39:09.049Z,353.43
2019-01-11T06:41:39.077Z,299.30
2019-01-11T06:44:07.485Z,373.80
2019-01-11T06:46:36.265Z,322.27
2019-01-11T06:49:05.410Z,362.17
2019-01-11T06:51:34.124Z,294.63
2019-01-11T06:54:02.533Z,328.70
2019-01-11T06:56:30.923Z,372.83
2019-01-11T06:58:59.309Z,425.60
2019-01-11T07:01:27.703Z,394.23
2019-01-11T07:03:56.089Z,396.47
2019-01-11T07:06:24.483Z,239.60
2019-01-11T07:08:52.877Z,329.63
2019-01-11T07:11:21.270Z,425.53
2019-01-11T07:13:49.650Z,315.00
2019-01-11T07:16:18.043Z,354.30
2019-01-11T07:18:46.426Z,396.97
2019-01-11T07:21:14.821Z,418.27
2019-01-11T07:23:43.207Z,359.90
2019-01-11T07:26:11.597Z,407.47
2019-01-11T07:28:39.973Z,369.77
2019-01-11T07:31:09.035Z,467.03
2019-01-11T07:33:37.658Z,389.67
2019-01-11T07:36:07.858Z,416.93
2019-01-11T07:38:36.310Z,450.67
2019-01-11T07:41:04.701Z,463.77
2019-01-11T07:43:33.089Z,449.33
2019-01-11T07:46:02.049Z,407.37
2019-01-11T07:48:30.428Z,419.97
2019-01-11T07:50:58.821Z,431.60
2019-01-11T07:53:27.210Z,388.73
2019-01-11T07:55:55.764Z,441.50
2019-01-11T07:58:24.145Z,448.40
2019-01-11T08:00:52.538Z,345.90
2019-01-11T08:03:21.009Z,415.50
2019-01-11T08:05:49.497Z,339.87
2019-01-11T08:08:17.888Z,463.37
2019-01-11T08:10:46.281Z,418.00
2019-01-11T08:13:14.667Z,307.37
2019-01-11T08:15:43.057Z,370.10
2019-01-11T08:18:11.437Z,428.57
2019-01-11T08:20:39.827Z,421.03
2019-01-11T08:23:08.208Z,420.70
2019-01-11T08:25:36.594Z,385.80
2019-01-11T08:28:24.302Z,430.10
2019-01-11T08:31:12.029Z,467.63
2019-01-11T08:33:59.528Z,395.43
2019-01-11T08:36:27.931Z,294.63
2019-01-11T08:41:45.379Z,171.00
2019-01-11T08:44:13.760Z,141.53
2019-01-11T08:46:42.157Z,136.30
2019-01-11T08:49:29.878Z,111.53
2019-01-11T08:51:58.268Z,124.63
2019-01-11T08:54:26.659Z,101.13
2019-01-11T08:56:55.053Z,112.30
2019-01-11T08:59:42.544Z,107.37
2019-01-11T09:02:30.274Z,96.80
2019-01-11T09:04:58.650Z,72.93
2019-01-11T09:07:27.045Z,91.07
2019-01-11T09:09:55.418Z,79.87
2019-01-11T09:12:23.808Z,103.40
2019-01-11T09:15:11.501Z,98.77
2019-01-11T09:17:59.007Z,100.87
2019-01-11T09:20:46.498Z,90.27
2019-01-11T09:23:14.896Z,143.23
2019-01-11T09:25:43.282Z,102.90
2019-01-11T09:28:30.920Z,146.70
2019-01-11T09:30:59.301Z,127.97
2019-01-11T09:33:27.693Z,150.03
2019-01-11T09:35:56.076Z,161.60
2019-01-11T09:38:43.582Z,131.07
2019-01-11T09:44:18.821Z,142.13
2019-01-11T09:47:06.685Z,124.37
2019-01-11T09:49:35.077Z,101.47
2019-01-11T09:54:57.607Z,133.67
2019-01-11T09:57:26.025Z,94.87
2019-01-11T09:59:54.529Z,103.63
2019-01-11T10:05:15.612Z,76.50
2019-01-11T10:10:37.152Z,78.97
2019-01-11T10:13:24.790Z,52.60
2019-01-11T10:16:12.653Z,60.50
2019-01-11T10:19:00.157Z,56.10
2019-01-11T10:21:28.540Z,47.63
2019-01-11T10:26:30.591Z,53.20
2019-01-11T10:29:18.229Z,43.47
2019-01-11T10:34:53.181Z,41.70
2019-01-11T10:37:21.558Z,48.13
2019-01-11T10:39:49.949Z,42.63
2019-01-11T10:42:18.324Z,40.87
2019-01-11T10:44:46.705Z,35.10
2019-01-11T10:47:15.082Z,46.27
2019-01-11T10:50:02.716Z,39.30
2019-01-11T10:52:31.098Z,29.47
2019-01-11T10:55:18.602Z,35.63
2019-01-11T10:58:26.909Z,30.10
2019-01-11T11:01:14.543Z,25.33
2019-01-11T11:04:02.047Z,27.90
2019-01-11T11:09:17.908Z,25.80
2019-01-11T11:12:05.512Z,23.77
2019-01-11T11:17:07.829Z,17.73
2019-01-11T11:19:36.210Z,22.77
2019-01-11T11:24:52.030Z,25.43
2019-01-11T11:27:39.553Z,15.30
2019-01-11T11:30:51.037Z,20.37
2019-01-11T11:36:45.301Z,27.70
2019-01-11T11:39:13.742Z,18.40
2019-01-11T11:42:01.418Z,24.20
2019-01-11T11:44:29.823Z,28.43
2019-01-11T11:47:17.452Z,15.37
2019-01-11T11:49:45.840Z,19.30
2019-01-11T11:52:54.127Z,11.30
2019-01-11T11:55:22.514Z,20.63
2019-01-11T12:00:58.960Z,18.00
2019-01-11T12:04:07.256Z,14.53
2019-01-11T12:06:35.636Z,14.30
2019-01-11T12:09:44.191Z,15.97
2019-01-11T12:12:12.561Z,12.17
2019-01-11T12:14:40.933Z,13.50
2019-01-11T12:17:28.431Z,8.23
2019-01-11T12:19:57.200Z,9.50
2019-01-11T12:22:26.924Z,6.87
2019-01-11T12:25:14.787Z,6.10
2019-01-11T12:27:43.164Z,4.30
2019-01-11T12:30:51.478Z,10.60
2019-01-11T12:33:38.962Z,6.80
2019-01-11T12:36:26.589Z,6.03
2019-01-11T12:38:54.961Z,5.40
2019-01-11T12:41:42.594Z,4.07
2019-01-11T12:44:10.963Z,1.93
2019-01-11T12:46:58.463Z,2.53
2019-01-11T12:52:14.285Z,1.30
2019-01-11T12:55:01.917Z,3.93
2019-01-11T12:57:49.544Z,6.57
2019-01-11T13:00:57.839Z,5.23
2019-01-11T13:03:26.226Z,8.27
2019-01-11T13:06:13.867Z,3.10
2019-01-11T13:08:42.232Z,4.00
2019-01-11T13:11:29.955Z,7.13
2019-01-11T13:14:17.576Z,7.10
2019-01-11T13:16:45.971Z,6.63
2019-01-11T13:22:01.786Z,5.80
2019-01-11T13:27:17.601Z,9.50
2019-01-11T13:35:47.151Z,4.30
2019-01-11T13:38:34.803Z,4.10
2019-01-11T13:43:57.416Z,4.23
2019-01-11T13:46:25.796Z,3.77
2019-01-11T13:51:41.629Z,3.80
2019-01-11T13:54:29.118Z,5.63
2019-01-11T13:56:57.508Z,6.30
2019-01-11T13:59:45.136Z,5.17
2019-01-11T14:02:13.520Z,4.57
2019-01-11T14:05:20.261Z,5.53
2019-01-11T14:07:48.645Z,4.40
2019-01-11T14:13:23.574Z,2.53
2019-01-11T14:16:11.193Z,4.60
2019-01-11T14:18:39.575Z,3.53
2019-01-11T14:21:27.135Z,3.33
2019-01-11T14:24:14.762Z,4.47
2019-01-11T14:26:50.577Z,4.27
2019-01-11T14:29:38.202Z,5.97
2019-01-11T14:32:25.934Z,7.50
2019-01-11T14:34:54.300Z,5.17
2019-01-11T14:37:22.675Z,10.47
2019-01-11T14:42:25.045Z,7.63
2019-01-11T14:44:53.428Z,10.60
2019-01-11T14:47:41.053Z,8.07
2019-01-11T14:50:49.351Z,9.73
2019-01-11T14:53:17.735Z,5.60
2019-01-11T14:55:46.105Z,8.37
2019-01-11T14:58:14.489Z,13.70
2019-01-11T15:00:42.866Z,12.27
2019-01-11T15:03:30.594Z,12.37
2019-01-11T15:05:58.970Z,5.60
2019-01-11T15:08:27.391Z,5.57
2019-01-11T15:10:55.764Z,16.57
2019-01-11T15:15:58.148Z,17.30
2019-01-11T15:18:26.533Z,9.77
2019-01-11T15:20:54.922Z,16.17
2019-01-11T15:23:42.542Z,8.87
2019-01-11T15:26:10.930Z,11.33
2019-01-11T15:28:58.559Z,15.60
2019-01-11T15:31:26.979Z,11.63
2019-01-11T15:34:14.602Z,8.77
2019-01-11T15:39:30.418Z,17.07
2019-01-11T15:41:58.790Z,8.63
2019-01-11T15:44:27.180Z,16.90
2019-01-11T15:46:55.541Z,7.20
2019-01-11T15:49:23.940Z,14.37
2019-01-11T15:51:52.316Z,13.37
2019-01-11T15:59:48.412Z,10.13
2019-01-11T16:02:16.789Z,11.13
2019-01-11T16:04:45.197Z,8.63
2019-01-11T16:10:01.015Z,8.13
2019-01-11T16:13:09.303Z,12.00
2019-01-11T16:16:17.685Z,5.93
2019-01-11T16:19:05.307Z,14.73
2019-01-11T16:21:53.033Z,9.97
2019-01-11T16:24:21.423Z,9.90
2019-01-11T16:27:09.050Z,13.60
2019-01-11T16:29:56.785Z,11.50
2019-01-11T16:32:44.410Z,23.33
2019-01-11T16:35:12.793Z,9.30
2019-01-11T16:38:00.419Z,8.43
2019-01-11T16:40:28.814Z,26.43
2019-01-11T16:43:37.129Z,21.17
2019-01-11T16:46:24.776Z,21.77
2019-01-11T16:48:53.153Z,23.57
2019-01-11T16:51:21.583Z,25.57
2019-01-11T16:53:49.914Z,31.40
2019-01-11T16:56:37.547Z,28.57
2019-01-11T16:59:25.250Z,26.73
2019-01-11T17:01:53.629Z,24.07
2019-01-11T17:09:43.073Z,23.83
2019-01-11T17:12:30.701Z,31.13
2019-01-11T17:15:18.198Z,27.20
2019-01-11T17:18:05.686Z,30.03
2019-01-11T17:20:34.074Z,14.07
2019-01-11T17:25:49.902Z,22.50
2019-01-11T17:28:18.278Z,22.73
2019-01-11T17:30:46.663Z,26.13
2019-01-11T17:33:15.044Z,26.67
2019-01-11T17:36:02.674Z,25.53
2019-01-11T17:38:50.162Z,31.47
2019-01-11T17:41:18.548Z,21.70
2019-01-11T17:43:46.922Z,37.50
2019-01-11T17:46:34.424Z,37.83
2019-01-11T17:52:29.986Z,31.97
2019-01-11T17:55:17.478Z,29.80
2019-01-11T17:57:45.859Z,41.90
2019-01-11T18:00:33.578Z,34.20
2019-01-11T18:03:01.961Z,21.90
2019-01-11T18:05:30.334Z,28.63
2019-01-11T18:08:17.968Z,43.50
2019-01-11T18:11:05.492Z,29.87
2019-01-11T18:13:33.868Z,35.60
2019-01-11T18:16:21.555Z,37.90
2019-01-11T18:18:49.906Z,37.17
2019-01-11T18:21:37.635Z,27.17
2019-01-11T18:24:25.269Z,40.47
2019-01-11T18:27:12.769Z,32.07
2019-01-11T18:30:00.388Z,39.63
2019-01-11T18:40:32.768Z,45.77
2019-01-11T18:45:35.062Z,32.17
2019-01-11T18:50:37.446Z,35.70
2019-01-11T18:53:05.830Z,38.13
2019-01-11T18:55:34.211Z,46.83
2019-01-11T18:58:02.591Z,34.80
2019-01-11T19:00:30.962Z,32.60
2019-01-11T19:02:59.351Z,26.53
2019-01-11T19:05:27.766Z,29.83
2019-01-11T19:07:56.146Z,39.03
2019-01-11T19:10:24.626Z,56.23
2019-01-11T19:12:53.016Z,25.63
2019-01-11T19:15:26.649Z,42.03
2019-01-11T19:17:55.027Z,48.10
2019-01-11T19:20:25.644Z,40.63
2019-01-11T19:22:54.201Z,43.10
2019-01-11T19:25:22.739Z,38.13
2019-01-11T19:27:51.194Z,56.43
2019-01-11T19:30:21.710Z,52.30
2019-01-11T19:32:50.178Z,48.03
2019-01-11T19:35:18.555Z,46.50
2019-01-11T19:37:46.934Z,39.83
2019-01-11T19:40:16.453Z,37.53
2019-01-11T19:42:44.844Z,55.40
2019-01-11T19:45:15.070Z,55.70
2019-01-11T19:47:43.440Z,40.30
2019-01-11T19:50:14.362Z,40.43
2019-01-11T19:52:43.225Z,36.77
2019-01-11T19:55:12.168Z,46.20
2019-01-11T19:57:40.535Z,51.63
2019-01-11T20:00:17.788Z,47.60
2019-01-11T20:02:46.605Z,51.77
2019-01-11T20:05:15.922Z,31.87
2019-01-11T20:07:44.468Z,55.70
2019-01-11T20:10:15.945Z,39.73
2019-01-11T20:12:44.317Z,59.70
2019-01-11T20:15:13.120Z,74.60
2019-01-11T20:17:41.492Z,39.83
2019-01-11T20:20:12.611Z,49.33
2019-01-11T20:22:40.986Z,49.77
2019-01-11T20:25:15.028Z,65.23
2019-01-11T20:27:43.472Z,53.47
2019-01-11T20:30:17.754Z,77.83
2019-01-11T20:32:46.180Z,43.87
2019-01-11T20:35:14.677Z,49.07
2019-01-11T20:37:43.314Z,44.03
2019-01-11T20:40:14.139Z,38.43
2019-01-11T20:42:42.572Z,54.23
2019-01-11T20:45:13.638Z,58.33
2019-01-11T20:47:42.011Z,38.93
2019-01-11T20:50:13.140Z,49.70
2019-01-11T20:52:41.522Z,51.10
2019-01-11T20:55:10.871Z,41.30
2019-01-11T20:57:39.487Z,55.67
2019-01-11T21:00:11.338Z,61.83
2019-01-11T21:02:39.716Z,49.23
2019-01-11T21:05:08.534Z,46.47
2019-01-11T21:07:36.906Z,55.07
2019-01-11T21:10:08.227Z,53.80
2019-01-11T21:12:36.602Z,53.77
2019-01-11T21:15:11.119Z,32.63
2019-01-11T21:17:39.500Z,56.20
2019-01-11T21:20:10.924Z,45.57
2019-01-11T21:22:39.367Z,52.63
2019-01-11T21:25:10.792Z,54.70
2019-01-11T21:27:39.166Z,56.90
2019-01-11T21:30:16.376Z,47.00
2019-01-11T21:32:44.752Z,55.77
2019-01-11T21:35:13.405Z,40.60
2019-01-11T21:37:41.780Z,37.83
2019-01-11T21:40:13.006Z,59.63
2019-01-11T21:42:41.382Z,45.53
2019-01-11T21:45:11.219Z,58.23
2019-01-11T21:47:39.728Z,51.93
2019-01-11T21:50:17.360Z,60.27
2019-01-11T21:52:45.800Z,48.00
2019-01-11T21:55:14.921Z,45.30
2019-01-11T21:57:44.244Z,54.13
2019-01-11T22:00:19.086Z,36.03
2019-01-11T22:02:47.477Z,54.17
2019-01-11T22:05:16.014Z,54.10
2019-01-11T22:07:44.393Z,48.17
2019-01-11T22:10:15.111Z,56.47
2019-01-11T22:12:43.490Z,47.23
2019-01-11T22:15:14.984Z,58.40
2019-01-11T22:17:43.367Z,57.33
2019-01-11T22:20:14.405Z,47.73
2019-01-11T22:22:42.766Z,46.07
2019-01-11T22:25:12.877Z,46.07
2019-01-11T22:27:41.265Z,48.23
2019-01-11T22:30:12.650Z,48.17
2019-01-11T22:32:41.037Z,47.03
2019-01-11T22:35:09.408Z,56.60
2019-01-11T22:37:37.791Z,43.80
2019-01-11T22:40:09.219Z,37.03
2019-01-11T22:42:37.603Z,40.17
2019-01-11T22:45:09.283Z,55.23
2019-01-11T22:47:37.688Z,48.67
2019-01-11T22:50:08.703Z,62.53
2019-01-11T22:52:37.090Z,42.97
2019-01-11T22:55:07.705Z,42.70
2019-01-11T22:57:36.086Z,45.00
2019-01-11T23:00:07.544Z,58.47
2019-01-11T23:02:35.929Z,63.47
2019-01-11T23:05:06.340Z,43.73
2019-01-11T23:07:34.723Z,58.20
2019-01-11T23:10:04.978Z,85.13
2019-01-11T23:12:39.258Z,46.17
2019-01-11T23:15:10.696Z,48.60
2019-01-11T23:17:42.131Z,59.77
2019-01-11T23:20:12.951Z,53.93
2019-01-11T23:22:41.336Z,57.30
2019-01-11T23:25:09.801Z,38.57
2019-01-11T23:27:38.193Z,50.33
2019-01-11T23:30:09.705Z,43.43
2019-01-11T23:32:38.086Z,61.23
2019-01-11T23:35:06.630Z,47.23
2019-01-11T23:37:35.015Z,55.67
2019-01-11T23:40:04.362Z,46.00
2019-01-11T23:42:32.742Z,46.03
2019-01-11T23:45:01.118Z,57.80
2019-01-11T23:47:29.571Z,44.83
2019-01-11T23:49:58.010Z,56.07
2019-01-11T23:52:26.394Z,41.77
2019-01-11T23:54:54.774Z,44.93
2019-01-11T23:57:23.220Z,47.47
2019-01-11T23:59:51.647Z,50.20
